Meteo Giornale » Osservazioni meteo Stati Uniti (USA) » Shelbyville

ore: 14:53 - Osservazioni Meteo Shelbyville
Lat. 39° 35' N Lon. 85° 48' W Alt. 245 metri s.l.m.

sereno

33 °C

Sereno

Temp. 24 Ore

22 °C

33 °C

Sud-Ovest

16.7 Km/h

Dew point 22 °C

Umidità 52 %

Visibilità  10 Km

Il sole sorge alle ore 07:11

Il sole tramonta alle ore 20:14

Data e Ora Cielo e Fenomeni T °C DP °C Um. % Pres. hPa Vis. km Vento km/h
Oggi h: 14:53 sereno Sereno 33 22 52 1017 10 SO 16.7
Oggi h: 13:53 sereno Sereno 33 23 55 1017 10 SO 22.2
Oggi h: 12:53 sereno Sereno 32 23 59 1018 10 SO 18.5
Oggi h: 11:53 sereno Sereno 31 22 58 1018 10 SO 18.5
Oggi h: 10:53 sereno Sereno 29 23 70 1018 10 SO 14.8
Oggi h: 09:53 sereno Sereno 27 22 74 1018 10 S/SO 13
Oggi h: 08:53 sereno Sereno 24 22 88 1019 10 S 13
Oggi h: 07:53 sereno Sereno 22 21 94 1018 10 S 9.3
Oggi h: 06:53 sereno Sereno 22 21 94 1018 10 S 7.4
Oggi h: 05:53 sereno Sereno 22 21 94 1017 10 N 5.5
Oggi h: 04:53 sereno Sereno 23 21 88 1017 10 S 7.4
Oggi h: 03:53 sereno Sereno 23 21 88 1017 10 S/SO 7.4
Oggi h: 02:53 sereno Sereno 23 22 94 1017 10 SO 7.4
Oggi h: 01:53 sereno Sereno 23 22 94 1017 10 S/SO 9.3
Oggi h: 00:53 sereno Sereno 24 22 88 1017 10 S 11.1
Ieri h: 23:53 sereno Sereno 26 22 78 1017 10 S 9.3
Ieri h: 22:53 sereno Sereno 26 22 78 1017 10 S 9.3
Ieri h: 21:53 sereno Sereno 25 22 83 1017 10 S 9.3
Ieri h: 20:53 sereno Sereno 27 23 78 1016 10 S 7.4
Ieri h: 19:53 sereno Sereno 29 23 70 1016 10 S/SO 13
Ieri h: 18:53 sereno Sereno 31 23 62 1016 10 S/SO 13
Ieri h: 17:53 sereno Sereno 32 22 55 1017 10 S/SO 18.5
Ieri h: 16:53 poco_nuvoloso Poco Nuvoloso 32 22 55 1017 10 SO 13
Ieri h: 15:53 poco_nuvoloso Poco Nuvoloso 32 21 52 1018 10 O/SO 13